createdAt,value
2018-10-19T00:02:00.836Z,11.40
2018-10-19T00:04:29.313Z,11.40
2018-10-19T00:06:58.005Z,11.40
2018-10-19T00:09:26.608Z,11.40
2018-10-19T00:11:55.555Z,11.40
2018-10-19T00:14:27.501Z,11.40
2018-10-19T00:16:56.327Z,11.30
2018-10-19T00:19:25.603Z,11.30
2018-10-19T00:21:54.384Z,11.30
2018-10-19T00:24:23.054Z,11.30
2018-10-19T00:26:51.664Z,11.30
2018-10-19T00:29:20.816Z,11.20
2018-10-19T00:31:49.600Z,11.20
2018-10-19T00:34:18.050Z,11.10
2018-10-19T00:36:53.269Z,11.10
2018-10-19T00:39:21.786Z,11.10
2018-10-19T00:41:50.666Z,11.10
2018-10-19T00:44:19.128Z,11.10
2018-10-19T00:46:47.575Z,11.20
2018-10-19T00:49:21.944Z,11.20
2018-10-19T00:51:50.529Z,11.10
2018-10-19T00:54:19.024Z,11.10
2018-10-19T00:56:47.512Z,11.10
2018-10-19T00:59:25.776Z,11.10
2018-10-19T01:01:54.228Z,11.00
2018-10-19T01:04:22.694Z,11.00
2018-10-19T01:06:51.301Z,11.00
2018-10-19T01:09:19.932Z,11.00
2018-10-19T01:11:48.318Z,11.00
2018-10-19T01:14:16.738Z,11.00
2018-10-19T01:16:48.982Z,11.00
2018-10-19T01:19:17.475Z,11.00
2018-10-19T01:21:45.910Z,11.00
2018-10-19T01:24:14.417Z,11.00
2018-10-19T01:26:42.964Z,11.00
2018-10-19T01:29:21.291Z,11.00
2018-10-19T01:31:49.817Z,11.00
2018-10-19T01:34:22.127Z,10.90
2018-10-19T01:36:50.604Z,10.90
2018-10-19T01:39:34.192Z,10.90
2018-10-19T01:42:02.722Z,10.90
2018-10-19T01:44:32.550Z,10.90
2018-10-19T01:47:00.997Z,10.90
2018-10-19T01:49:31.456Z,10.90
2018-10-19T01:51:59.804Z,10.80
2018-10-19T01:54:28.216Z,10.80
2018-10-19T01:56:57.087Z,10.80
2018-10-19T01:59:25.844Z,10.70
2018-10-19T02:01:54.445Z,10.70
2018-10-19T02:04:22.819Z,10.70
2018-10-19T02:06:51.295Z,10.70
2018-10-19T02:09:20.155Z,10.70
2018-10-19T02:11:48.672Z,10.70
2018-10-19T02:14:17.224Z,10.70
2018-10-19T02:16:45.746Z,10.70
2018-10-19T02:19:14.191Z,10.70
2018-10-19T02:21:42.692Z,10.70
2018-10-19T02:24:11.282Z,10.70
2018-10-19T02:26:39.873Z,10.60
2018-10-19T02:29:08.381Z,10.60
2018-10-19T02:31:36.730Z,10.60
2018-10-19T02:34:05.749Z,10.60
2018-10-19T02:36:34.256Z,10.50
2018-10-19T02:39:02.811Z,10.60
2018-10-19T02:41:31.419Z,10.60
2018-10-19T02:43:59.848Z,10.60
2018-10-19T02:46:28.343Z,10.60
2018-10-19T02:48:56.865Z,10.60
2018-10-19T02:51:25.302Z,10.70
2018-10-19T02:53:53.757Z,10.70
2018-10-19T02:56:22.228Z,10.80
2018-10-19T02:58:50.740Z,10.80
2018-10-19T03:01:19.089Z,10.80
2018-10-19T03:03:48.294Z,10.90
2018-10-19T03:06:16.714Z,10.90
2018-10-19T03:08:45.139Z,10.90
2018-10-19T03:11:13.707Z,10.90
2018-10-19T03:13:42.049Z,11.00
2018-10-19T03:16:10.815Z,11.00
2018-10-19T03:18:39.269Z,11.00
2018-10-19T03:21:07.862Z,11.00
2018-10-19T03:23:36.242Z,11.00
2018-10-19T03:26:05.363Z,11.10
2018-10-19T03:28:34.198Z,11.10
2018-10-19T03:31:02.981Z,11.00
2018-10-19T03:33:31.476Z,11.10
2018-10-19T03:36:00.053Z,11.10
2018-10-19T03:38:28.675Z,11.10
2018-10-19T03:40:57.187Z,11.10
2018-10-19T03:43:25.697Z,11.10
2018-10-19T03:45:54.181Z,11.20
2018-10-19T03:48:22.592Z,11.10
2018-10-19T03:50:51.009Z,11.10
2018-10-19T03:53:19.545Z,11.10
2018-10-19T03:55:48.142Z,11.10
2018-10-19T03:58:16.537Z,11.10
2018-10-19T04:00:44.961Z,11.20
2018-10-19T04:03:13.449Z,11.10
2018-10-19T04:05:41.850Z,11.20
2018-10-19T04:08:10.362Z,11.10
2018-10-19T04:10:38.868Z,11.20
2018-10-19T04:13:07.755Z,11.20
2018-10-19T04:15:36.214Z,11.20
2018-10-19T04:18:04.738Z,11.20
2018-10-19T04:20:33.213Z,11.30
2018-10-19T04:23:08.746Z,11.30
2018-10-19T04:25:38.031Z,11.30
2018-10-19T04:28:06.564Z,11.30
2018-10-19T04:30:36.079Z,11.30
2018-10-19T04:33:10.652Z,11.30
2018-10-19T04:35:39.137Z,11.30
2018-10-19T04:38:07.770Z,11.30
2018-10-19T04:40:36.361Z,11.30
2018-10-19T04:43:08.533Z,11.40
2018-10-19T04:45:37.161Z,11.40
2018-10-19T04:48:05.922Z,11.40
2018-10-19T04:50:34.377Z,11.40
2018-10-19T04:53:02.852Z,11.50
2018-10-19T04:55:31.379Z,11.50
2018-10-19T04:57:59.953Z,11.50
2018-10-19T05:00:28.679Z,11.60
2018-10-19T05:02:57.205Z,11.60
2018-10-19T05:05:25.936Z,11.60
2018-10-19T05:07:54.285Z,11.60
2018-10-19T05:10:22.873Z,11.60
2018-10-19T05:12:51.411Z,11.60
2018-10-19T05:15:19.905Z,11.60
2018-10-19T05:17:48.722Z,11.60
2018-10-19T05:20:17.793Z,11.60
2018-10-19T05:22:46.214Z,11.60
2018-10-19T05:25:15.673Z,11.70
2018-10-19T05:27:44.829Z,11.60
2018-10-19T05:30:13.805Z,11.60
2018-10-19T05:32:43.020Z,11.60
2018-10-19T05:35:11.455Z,11.60
2018-10-19T05:37:40.536Z,11.60
2018-10-19T05:40:10.016Z,11.60
2018-10-19T05:42:39.277Z,11.60
2018-10-19T05:45:10.273Z,11.60
2018-10-19T05:47:38.887Z,11.60
2018-10-19T05:50:08.497Z,11.60
2018-10-19T05:52:37.472Z,11.60
2018-10-19T05:55:06.160Z,11.60
2018-10-19T05:57:35.025Z,11.60
2018-10-19T06:00:03.805Z,11.70
2018-10-19T06:02:32.700Z,11.70
2018-10-19T06:05:01.596Z,11.70
2018-10-19T06:07:30.185Z,11.70
2018-10-19T06:09:58.768Z,11.60
2018-10-19T06:12:27.418Z,11.70
2018-10-19T06:14:55.979Z,11.70
2018-10-19T06:17:24.503Z,11.70
2018-10-19T06:19:53.150Z,11.70
2018-10-19T06:22:21.635Z,11.70
2018-10-19T06:24:50.230Z,11.70
2018-10-19T06:27:18.957Z,11.70
2018-10-19T06:29:47.453Z,11.70
2018-10-19T06:32:16.085Z,11.70
2018-10-19T06:34:44.642Z,11.70
2018-10-19T06:37:13.161Z,11.70
2018-10-19T06:39:41.649Z,11.70
2018-10-19T06:42:10.237Z,11.70
2018-10-19T06:44:38.797Z,11.80
2018-10-19T06:47:07.644Z,11.80
2018-10-19T06:49:36.116Z,11.80
2018-10-19T06:52:04.626Z,11.80
2018-10-19T06:54:33.150Z,11.80
2018-10-19T06:57:01.556Z,11.70
2018-10-19T06:59:30.191Z,11.70
2018-10-19T07:01:58.496Z,11.70
2018-10-19T07:04:27.496Z,11.70
2018-10-19T07:06:57.585Z,11.80
2018-10-19T07:09:42.636Z,11.80
2018-10-19T07:12:14.649Z,11.80
2018-10-19T07:14:48.540Z,11.80
2018-10-19T07:17:17.254Z,11.80
2018-10-19T07:19:45.745Z,11.80
2018-10-19T07:22:14.316Z,11.80
2018-10-19T07:24:42.830Z,11.90
2018-10-19T07:27:11.281Z,11.90
2018-10-19T07:29:39.772Z,11.90
2018-10-19T07:32:08.563Z,12.00
2018-10-19T07:34:37.000Z,12.00
2018-10-19T07:37:12.207Z,12.00
2018-10-19T07:39:40.772Z,12.10
2018-10-19T07:42:09.378Z,12.10
2018-10-19T07:44:37.842Z,12.10
2018-10-19T07:47:06.452Z,12.10
2018-10-19T07:49:35.025Z,12.10
2018-10-19T07:52:03.554Z,12.10
2018-10-19T07:54:33.345Z,12.20
2018-10-19T07:57:01.815Z,12.20
2018-10-19T07:59:30.457Z,12.20
2018-10-19T08:01:58.984Z,12.30
2018-10-19T08:04:27.500Z,12.30
2018-10-19T08:06:56.444Z,12.40
2018-10-19T08:09:25.033Z,12.40
2018-10-19T08:11:55.740Z,12.50
2018-10-19T08:14:24.254Z,12.60
2018-10-19T08:16:52.968Z,12.60
2018-10-19T08:19:22.689Z,12.60
2018-10-19T08:21:51.357Z,12.60
2018-10-19T08:24:19.890Z,12.60
2018-10-19T08:26:48.298Z,12.50
2018-10-19T08:29:16.831Z,12.50
2018-10-19T08:31:45.241Z,12.60
2018-10-19T08:34:13.693Z,12.60
2018-10-19T08:36:42.193Z,12.60
2018-10-19T08:39:10.645Z,12.70
2018-10-19T08:41:39.088Z,12.70
2018-10-19T08:44:07.536Z,12.80
2018-10-19T08:46:36.900Z,12.90
2018-10-19T08:49:06.673Z,12.90
2018-10-19T08:51:35.178Z,12.90
2018-10-19T08:54:03.557Z,12.90
2018-10-19T08:56:32.073Z,12.90
2018-10-19T08:59:00.432Z,13.10
2018-10-19T09:01:28.897Z,13.10
2018-10-19T09:03:57.416Z,13.20
2018-10-19T09:06:25.796Z,13.30
2018-10-19T09:08:54.353Z,13.40
2018-10-19T09:11:22.890Z,13.40
2018-10-19T09:13:51.419Z,13.30
2018-10-19T09:16:19.832Z,13.30
2018-10-19T09:18:48.301Z,13.30
2018-10-19T09:21:16.749Z,13.40
2018-10-19T09:23:45.196Z,13.50
2018-10-19T09:26:13.716Z,13.60
2018-10-19T09:28:42.275Z,13.70
2018-10-19T09:31:11.061Z,13.90
2018-10-19T09:33:39.542Z,14.00
2018-10-19T09:36:17.843Z,14.20
2018-10-19T09:38:46.165Z,14.30
2018-10-19T09:41:14.607Z,14.50
2018-10-19T09:43:46.668Z,14.50
2018-10-19T09:46:15.092Z,14.60
2018-10-19T09:48:43.581Z,14.70
2018-10-19T09:51:12.179Z,14.80
2018-10-19T09:53:41.606Z,14.80
2018-10-19T09:56:10.306Z,14.90
2018-10-19T09:58:38.879Z,15.00
2018-10-19T10:01:12.846Z,15.00
2018-10-19T10:03:41.233Z,15.10
2018-10-19T10:06:09.601Z,15.20
2018-10-19T10:08:38.007Z,15.30
2018-10-19T10:11:06.541Z,15.20
2018-10-19T10:13:34.897Z,15.30
2018-10-19T10:16:04.481Z,15.10
2018-10-19T10:18:32.974Z,15.10
2018-10-19T10:21:01.509Z,15.10
2018-10-19T10:23:30.200Z,15.20
2018-10-19T10:25:58.566Z,15.10
2018-10-19T10:28:26.982Z,15.10
2018-10-19T10:30:55.522Z,15.10
2018-10-19T10:33:23.953Z,15.10
2018-10-19T10:35:52.788Z,15.10
2018-10-19T10:38:21.445Z,15.10
2018-10-19T10:40:50.007Z,15.10
2018-10-19T10:43:18.542Z,15.10
2018-10-19T10:45:47.192Z,15.10
2018-10-19T10:48:16.718Z,15.10
2018-10-19T10:50:45.221Z,15.20
2018-10-19T10:53:13.700Z,15.20
2018-10-19T10:55:42.189Z,15.20
2018-10-19T10:58:10.768Z,15.20
2018-10-19T11:00:39.297Z,15.10
2018-10-19T11:03:07.857Z,15.10
2018-10-19T11:05:36.303Z,15.10
2018-10-19T11:08:10.373Z,15.10
2018-10-19T11:10:38.798Z,15.10
2018-10-19T11:13:07.383Z,15.20
2018-10-19T11:15:36.152Z,15.40
2018-10-19T11:18:05.037Z,15.60
2018-10-19T11:20:33.713Z,15.60
2018-10-19T11:23:02.329Z,15.50
2018-10-19T11:25:30.962Z,15.40
2018-10-19T11:27:59.494Z,15.40
2018-10-19T11:30:27.976Z,15.30
2018-10-19T11:32:59.556Z,15.30
2018-10-19T11:35:28.741Z,15.30
2018-10-19T11:38:07.249Z,15.20
2018-10-19T11:40:36.932Z,15.20
2018-10-19T11:43:12.127Z,15.10
2018-10-19T11:45:40.526Z,15.00
2018-10-19T11:48:09.021Z,15.00
2018-10-19T11:50:37.674Z,14.90
2018-10-19T11:53:06.057Z,14.90
2018-10-19T11:55:34.525Z,14.90
2018-10-19T11:58:03.334Z,15.00
2018-10-19T12:00:31.842Z,15.20
2018-10-19T12:03:00.352Z,15.60
2018-10-19T12:05:28.855Z,15.70
2018-10-19T12:08:01.278Z,15.90
2018-10-19T12:10:29.863Z,16.00
2018-10-19T12:12:58.452Z,16.10
2018-10-19T12:15:26.918Z,16.10
2018-10-19T12:17:58.944Z,16.10
2018-10-19T12:20:37.091Z,16.10
2018-10-19T12:23:06.620Z,16.00
2018-10-19T12:25:36.912Z,16.00
2018-10-19T12:28:05.721Z,15.90
2018-10-19T12:30:41.123Z,15.80
2018-10-19T12:33:09.687Z,15.70
2018-10-19T12:35:38.358Z,15.50
2018-10-19T12:38:07.164Z,15.50
2018-10-19T12:40:37.154Z,15.40
2018-10-19T12:43:16.152Z,15.30
2018-10-19T12:46:22.158Z,15.20
2018-10-19T12:48:52.371Z,15.20
2018-10-19T12:51:21.762Z,15.40
2018-10-19T12:53:50.679Z,15.50
2018-10-19T12:56:41.165Z,15.60
2018-10-19T12:59:10.293Z,15.80
2018-10-19T13:01:39.254Z,16.00
2018-10-19T13:04:09.735Z,16.00
2018-10-19T13:06:39.787Z,16.10
2018-10-19T13:09:12.267Z,16.20
2018-10-19T13:11:46.859Z,16.40
2018-10-19T13:14:19.545Z,16.50
2018-10-19T13:16:50.411Z,16.60
2018-10-19T13:19:19.740Z,16.60
2018-10-19T13:21:48.353Z,16.60
2018-10-19T13:24:17.145Z,16.60
2018-10-19T13:26:45.864Z,16.60
2018-10-19T13:29:14.441Z,16.60
2018-10-19T13:31:43.412Z,16.60
2018-10-19T13:34:12.211Z,16.50
2018-10-19T13:36:41.392Z,16.40
2018-10-19T13:39:11.973Z,16.40
2018-10-19T13:41:41.092Z,16.30
2018-10-19T13:44:09.848Z,16.30
2018-10-19T13:46:38.560Z,16.30
2018-10-19T13:49:07.500Z,16.30
2018-10-19T13:51:36.492Z,16.30
2018-10-19T13:54:14.954Z,16.30
2018-10-19T13:56:43.909Z,16.20
2018-10-19T13:59:12.615Z,16.10
2018-10-19T14:01:42.700Z,16.10
2018-10-19T14:04:16.651Z,16.00
2018-10-19T14:06:45.146Z,16.00
2018-10-19T14:09:13.553Z,16.00
2018-10-19T14:11:42.097Z,16.00
2018-10-19T14:14:10.632Z,16.00
2018-10-19T14:16:39.154Z,16.00
2018-10-19T14:19:07.665Z,16.00
2018-10-19T14:21:36.177Z,16.00
2018-10-19T14:24:04.620Z,15.90
2018-10-19T14:26:33.104Z,15.90
2018-10-19T14:29:01.575Z,15.90
2018-10-19T14:31:29.977Z,15.90
2018-10-19T14:33:58.437Z,15.90
2018-10-19T14:36:34.004Z,15.90
2018-10-19T14:39:02.447Z,15.90
2018-10-19T14:41:31.080Z,15.90
2018-10-19T14:44:02.957Z,15.90
2018-10-19T14:46:31.325Z,15.90
2018-10-19T14:49:02.908Z,15.90
2018-10-19T14:51:31.350Z,15.90
2018-10-19T14:53:59.890Z,15.90
2018-10-19T14:56:28.339Z,15.90
2018-10-19T14:58:56.832Z,15.80
2018-10-19T15:01:25.303Z,15.80
2018-10-19T15:03:53.744Z,15.90
2018-10-19T15:06:22.264Z,15.90
2018-10-19T15:08:50.739Z,15.90
2018-10-19T15:11:20.474Z,15.80
2018-10-19T15:13:48.700Z,15.80
2018-10-19T15:16:17.171Z,15.80
2018-10-19T15:18:45.713Z,15.70
2018-10-19T15:21:14.459Z,15.70
2018-10-19T15:23:43.571Z,15.70
2018-10-19T15:26:12.028Z,15.60
2018-10-19T15:28:40.568Z,15.60
2018-10-19T15:31:11.530Z,15.60
2018-10-19T15:33:40.640Z,15.50
2018-10-19T15:36:09.185Z,15.50
2018-10-19T15:38:37.634Z,15.50
2018-10-19T15:41:06.206Z,15.40
2018-10-19T15:43:34.643Z,15.50
2018-10-19T15:46:03.262Z,15.50
2018-10-19T15:48:31.817Z,15.40
2018-10-19T15:51:00.938Z,15.40
2018-10-19T15:53:30.824Z,15.40
2018-10-19T15:55:59.258Z,15.30
2018-10-19T15:58:27.749Z,15.30
2018-10-19T16:00:56.235Z,15.30
2018-10-19T16:03:24.766Z,15.20
2018-10-19T16:05:53.267Z,15.20
2018-10-19T16:08:21.750Z,15.20
2018-10-19T16:10:50.193Z,15.20
2018-10-19T16:13:18.820Z,15.10
2018-10-19T16:15:47.293Z,15.10
2018-10-19T16:18:15.885Z,15.10
2018-10-19T16:20:44.315Z,15.10
2018-10-19T16:23:12.734Z,15.10
2018-10-19T16:25:41.216Z,15.00
2018-10-19T16:28:09.647Z,15.00
2018-10-19T16:30:39.324Z,15.00
2018-10-19T16:33:07.779Z,15.00
2018-10-19T16:35:36.316Z,15.10
2018-10-19T16:38:04.736Z,15.20
2018-10-19T16:40:33.423Z,15.40
2018-10-19T16:43:02.002Z,15.60
2018-10-19T16:45:30.529Z,15.70
2018-10-19T16:47:59.003Z,15.80
2018-10-19T16:50:27.398Z,16.00
2018-10-19T16:52:55.982Z,16.10
2018-10-19T16:55:24.424Z,16.20
2018-10-19T16:57:52.988Z,16.30
2018-10-19T17:00:21.619Z,16.40
2018-10-19T17:02:50.211Z,16.50
2018-10-19T17:05:18.638Z,16.50
2018-10-19T17:07:47.017Z,16.50
2018-10-19T17:10:15.527Z,16.50
2018-10-19T17:12:44.112Z,16.50
2018-10-19T17:15:17.078Z,16.60
2018-10-19T17:17:45.615Z,16.50
2018-10-19T17:20:14.091Z,16.50
2018-10-19T17:22:42.616Z,16.60
2018-10-19T17:25:12.356Z,16.60
2018-10-19T17:27:40.791Z,16.60
2018-10-19T17:30:11.403Z,16.60
2018-10-19T17:32:40.218Z,16.60
2018-10-19T17:35:09.504Z,16.60
2018-10-19T17:37:37.907Z,16.50
2018-10-19T17:40:07.785Z,16.40
2018-10-19T17:42:36.525Z,16.30
2018-10-19T17:45:06.818Z,16.20
2018-10-19T17:47:35.394Z,16.10
2018-10-19T17:50:03.877Z,16.00
2018-10-19T17:52:41.212Z,15.90
2018-10-19T17:55:10.863Z,15.90
2018-10-19T17:57:39.787Z,15.80
2018-10-19T18:00:09.918Z,15.70
2018-10-19T18:02:38.416Z,15.70
2018-10-19T18:05:09.579Z,15.60
2018-10-19T18:07:38.538Z,15.60
2018-10-19T18:10:07.017Z,15.60
2018-10-19T18:12:35.575Z,15.50
2018-10-19T18:15:05.672Z,15.40
2018-10-19T18:17:34.090Z,15.40
2018-10-19T18:20:02.572Z,15.40
2018-10-19T18:22:31.225Z,15.40
2018-10-19T18:24:59.611Z,15.30
2018-10-19T18:27:28.162Z,15.30
2018-10-19T18:29:56.583Z,15.30
2018-10-19T18:32:25.312Z,15.30
2018-10-19T18:34:54.014Z,15.30
2018-10-19T18:37:22.829Z,15.20
2018-10-19T18:39:51.793Z,15.20
2018-10-19T18:42:20.892Z,15.20
2018-10-19T18:44:49.967Z,15.20
2018-10-19T18:47:19.120Z,15.20
2018-10-19T18:49:48.506Z,15.20
2018-10-19T18:52:17.806Z,15.10
2018-10-19T18:54:47.159Z,15.10
2018-10-19T18:57:17.105Z,15.10
2018-10-19T18:59:47.548Z,15.10
2018-10-19T19:02:17.505Z,15.10
2018-10-19T19:04:47.704Z,15.00
2018-10-19T19:07:18.042Z,15.00
2018-10-19T19:09:53.039Z,15.00
2018-10-19T19:12:24.247Z,14.90
2018-10-19T19:14:54.059Z,14.90
2018-10-19T19:17:24.109Z,14.90
2018-10-19T19:19:59.116Z,14.90
2018-10-19T19:22:29.099Z,14.90
2018-10-19T19:25:04.620Z,14.80
2018-10-19T19:27:34.652Z,14.80
2018-10-19T19:30:04.477Z,14.80
2018-10-19T19:32:34.285Z,14.80
2018-10-19T19:35:04.101Z,14.70
2018-10-19T19:37:33.763Z,14.70
2018-10-19T19:40:03.122Z,14.70
2018-10-19T19:42:37.780Z,14.60
2018-10-19T19:45:07.761Z,14.60
2018-10-19T19:47:42.305Z,14.60
2018-10-19T19:50:11.508Z,14.50
2018-10-19T19:52:40.474Z,14.50
2018-10-19T19:55:09.262Z,14.50
2018-10-19T19:57:38.332Z,14.40
2018-10-19T20:00:07.379Z,14.40
2018-10-19T20:02:37.270Z,14.40
2018-10-19T20:05:06.789Z,14.40
2018-10-19T20:07:35.739Z,14.40
2018-10-19T20:10:04.740Z,14.40
2018-10-19T20:12:33.305Z,14.40
2018-10-19T20:15:01.839Z,14.40
2018-10-19T20:17:30.334Z,14.40
2018-10-19T20:19:58.893Z,14.40
2018-10-19T20:22:27.335Z,14.30
2018-10-19T20:24:55.830Z,14.30
2018-10-19T20:27:24.240Z,14.30
2018-10-19T20:29:52.897Z,14.30
2018-10-19T20:32:21.428Z,14.30
2018-10-19T20:34:49.861Z,14.30
2018-10-19T20:37:18.315Z,14.30
2018-10-19T20:39:46.808Z,14.30
2018-10-19T20:42:15.444Z,14.30
2018-10-19T20:44:44.205Z,14.30
2018-10-19T20:47:12.986Z,14.30
2018-10-19T20:49:41.462Z,14.30
2018-10-19T20:52:09.969Z,14.20
2018-10-19T20:54:38.431Z,14.20
2018-10-19T20:57:06.954Z,14.20
2018-10-19T20:59:35.964Z,14.10
2018-10-19T21:02:04.619Z,14.00
2018-10-19T21:04:34.547Z,13.80
2018-10-19T21:07:03.521Z,13.70
2018-10-19T21:09:32.342Z,13.50
2018-10-19T21:12:01.030Z,13.30
2018-10-19T21:14:29.661Z,13.20
2018-10-19T21:16:58.126Z,13.10
2018-10-19T21:19:26.896Z,13.00
2018-10-19T21:21:55.218Z,12.90
2018-10-19T21:24:23.756Z,12.90
2018-10-19T21:26:52.552Z,12.80
2018-10-19T21:29:21.091Z,12.70
2018-10-19T21:31:49.534Z,12.70
2018-10-19T21:34:18.047Z,12.60
2018-10-19T21:36:46.524Z,12.50
2018-10-19T21:39:15.033Z,12.50
2018-10-19T21:41:43.508Z,12.40
2018-10-19T21:44:12.047Z,12.30
2018-10-19T21:46:40.678Z,12.30
2018-10-19T21:49:09.177Z,12.20
2018-10-19T21:51:37.681Z,12.20
2018-10-19T21:54:06.498Z,12.10
2018-10-19T21:56:35.083Z,12.10
2018-10-19T21:59:03.660Z,12.10
2018-10-19T22:01:34.194Z,12.00
2018-10-19T22:04:02.669Z,12.00
2018-10-19T22:06:31.268Z,12.00
2018-10-19T22:08:59.819Z,12.00
2018-10-19T22:11:28.236Z,12.00
2018-10-19T22:13:56.625Z,11.90
2018-10-19T22:16:25.066Z,11.90
2018-10-19T22:18:53.506Z,11.90
2018-10-19T22:21:22.026Z,11.80
2018-10-19T22:23:50.418Z,11.80
2018-10-19T22:26:18.863Z,11.70
2018-10-19T22:28:47.281Z,11.60
2018-10-19T22:31:15.955Z,11.50
2018-10-19T22:33:44.286Z,11.50
2018-10-19T22:36:12.702Z,11.50
2018-10-19T22:38:41.261Z,11.40
2018-10-19T22:41:09.685Z,11.40
2018-10-19T22:43:38.084Z,11.30
2018-10-19T22:46:06.485Z,11.30
2018-10-19T22:48:34.954Z,11.20
2018-10-19T22:51:03.477Z,11.20
2018-10-19T22:53:31.989Z,11.20
2018-10-19T22:56:00.568Z,11.10
2018-10-19T22:58:29.092Z,11.20
2018-10-19T23:00:58.055Z,11.10
2018-10-19T23:03:26.490Z,11.10
2018-10-19T23:05:54.969Z,11.10
2018-10-19T23:08:23.369Z,11.10
2018-10-19T23:10:51.872Z,11.10
2018-10-19T23:13:21.097Z,11.10
2018-10-19T23:15:49.549Z,11.10
2018-10-19T23:18:18.148Z,11.00
2018-10-19T23:20:46.614Z,10.90
2018-10-19T23:23:15.144Z,10.90
2018-10-19T23:25:43.467Z,10.90
2018-10-19T23:28:11.906Z,10.90
2018-10-19T23:30:40.383Z,10.80
2018-10-19T23:33:08.869Z,10.80
2018-10-19T23:35:37.346Z,10.70
2018-10-19T23:38:06.032Z,10.70
2018-10-19T23:40:34.931Z,10.70
2018-10-19T23:43:03.564Z,10.70
2018-10-19T23:45:32.074Z,10.70
2018-10-19T23:48:00.507Z,10.70
2018-10-19T23:50:29.000Z,10.60
2018-10-19T23:52:57.526Z,10.60
2018-10-19T23:55:25.974Z,10.60
2018-10-19T23:57:54.393Z,10.60
